sensor_id;sensor_type;location;lat;lon;timestamp;P1;durP1;ratioP1;P2;durP2;ratioP2
59907;SDS011;61804;54.926;73.496;2023-03-16T00:00:51;9.77;;;8.40;;
59907;SDS011;61804;54.926;73.496;2023-03-16T00:03:23;8.13;;;6.78;;
59907;SDS011;61804;54.926;73.496;2023-03-16T00:06:00;9.25;;;8.25;;
59907;SDS011;61804;54.926;73.496;2023-03-16T00:08:28;7.93;;;7.15;;
59907;SDS011;61804;54.926;73.496;2023-03-16T00:10:56;8.13;;;7.32;;
59907;SDS011;61804;54.926;73.496;2023-03-16T00:13:28;8.93;;;6.75;;
59907;SDS011;61804;54.926;73.496;2023-03-16T00:15:57;10.40;;;7.82;;
59907;SDS011;61804;54.926;73.496;2023-03-16T00:18:26;10.98;;;6.72;;
59907;SDS011;61804;54.926;73.496;2023-03-16T00:20:56;7.72;;;6.88;;
59907;SDS011;61804;54.926;73.496;2023-03-16T00:23:34;7.00;;;6.40;;
59907;SDS011;61804;54.926;73.496;2023-03-16T00:26:07;7.95;;;7.10;;
59907;SDS011;61804;54.926;73.496;2023-03-16T00:28:45;10.85;;;8.52;;
59907;SDS011;61804;54.926;73.496;2023-03-16T00:31:14;10.13;;;8.30;;
59907;SDS011;61804;54.926;73.496;2023-03-16T00:33:42;10.75;;;9.45;;
59907;SDS011;61804;54.926;73.496;2023-03-16T00:36:11;7.68;;;6.60;;
59907;SDS011;61804;54.926;73.496;2023-03-16T00:38:39;15.43;;;8.55;;
59907;SDS011;61804;54.926;73.496;2023-03-16T00:41:11;10.25;;;7.80;;
59907;SDS011;61804;54.926;73.496;2023-03-16T00:43:40;11.20;;;7.88;;
59907;SDS011;61804;54.926;73.496;2023-03-16T00:46:18;11.02;;;9.65;;
59907;SDS011;61804;54.926;73.496;2023-03-16T00:48:45;10.35;;;9.35;;
59907;SDS011;61804;54.926;73.496;2023-03-16T00:51:15;11.55;;;8.77;;
59907;SDS011;61804;54.926;73.496;2023-03-16T00:53:43;12.75;;;10.13;;
59907;SDS011;61804;54.926;73.496;2023-03-16T00:56:16;13.18;;;9.18;;
59907;SDS011;61804;54.926;73.496;2023-03-16T00:58:45;15.10;;;9.13;;
59907;SDS011;61804;54.926;73.496;2023-03-16T01:01:14;12.68;;;9.85;;
59907;SDS011;61804;54.926;73.496;2023-03-16T01:03:43;10.20;;;7.72;;
59907;SDS011;61804;54.926;73.496;2023-03-16T01:06:16;11.85;;;7.80;;
59907;SDS011;61804;54.926;73.496;2023-03-16T01:08:47;12.85;;;8.45;;
59907;SDS011;61804;54.926;73.496;2023-03-16T01:11:16;9.38;;;7.55;;
59907;SDS011;61804;54.926;73.496;2023-03-16T01:13:55;10.23;;;6.80;;
59907;SDS011;61804;54.926;73.496;2023-03-16T01:16:28;10.02;;;8.45;;
59907;SDS011;61804;54.926;73.496;2023-03-16T01:21:32;11.32;;;9.02;;
59907;SDS011;61804;54.926;73.496;2023-03-16T01:23:59;9.93;;;7.30;;
59907;SDS011;61804;54.926;73.496;2023-03-16T01:26:27;6.20;;;5.70;;
59907;SDS011;61804;54.926;73.496;2023-03-16T01:29:00;10.82;;;7.82;;
59907;SDS011;61804;54.926;73.496;2023-03-16T01:31:29;8.70;;;7.90;;
59907;SDS011;61804;54.926;73.496;2023-03-16T01:33:58;12.25;;;6.95;;
59907;SDS011;61804;54.926;73.496;2023-03-16T01:36:29;7.47;;;6.32;;
59907;SDS011;61804;54.926;73.496;2023-03-16T01:39:02;27.60;;;7.18;;
59907;SDS011;61804;54.926;73.496;2023-03-16T01:41:43;9.93;;;7.43;;
59907;SDS011;61804;54.926;73.496;2023-03-16T01:44:15;12.18;;;8.52;;
59907;SDS011;61804;54.926;73.496;2023-03-16T01:46:44;11.73;;;8.88;;
59907;SDS011;61804;54.926;73.496;2023-03-16T01:54:27;9.02;;;6.60;;
59907;SDS011;61804;54.926;73.496;2023-03-16T02:03:10;10.15;;;7.68;;
59907;SDS011;61804;54.926;73.496;2023-03-16T02:08:21;8.88;;;5.88;;
59907;SDS011;61804;54.926;73.496;2023-03-16T02:10:52;8.52;;;7.28;;
59907;SDS011;61804;54.926;73.496;2023-03-16T02:13:32;50.92;;;38.22;;
59907;SDS011;61804;54.926;73.496;2023-03-16T02:16:13;71.75;;;52.00;;
59907;SDS011;61804;54.926;73.496;2023-03-16T02:18:45;56.20;;;45.60;;
59907;SDS011;61804;54.926;73.496;2023-03-16T02:21:18;45.75;;;38.28;;
59907;SDS011;61804;54.926;73.496;2023-03-16T02:23:51;61.30;;;43.33;;
59907;SDS011;61804;54.926;73.496;2023-03-16T02:31:30;37.53;;;25.63;;
59907;SDS011;61804;54.926;73.496;2023-03-16T02:34:02;41.97;;;30.95;;
59907;SDS011;61804;54.926;73.496;2023-03-16T02:36:35;30.00;;;26.67;;
59907;SDS011;61804;54.926;73.496;2023-03-16T02:39:04;20.70;;;18.23;;
59907;SDS011;61804;54.926;73.496;2023-03-16T02:41:40;13.65;;;11.65;;
59907;SDS011;61804;54.926;73.496;2023-03-16T02:44:14;17.55;;;14.80;;
59907;SDS011;61804;54.926;73.496;2023-03-16T02:46:55;12.82;;;11.10;;
59907;SDS011;61804;54.926;73.496;2023-03-16T02:49:35;8.43;;;7.65;;
59907;SDS011;61804;54.926;73.496;2023-03-16T02:52:05;7.38;;;6.35;;
59907;SDS011;61804;54.926;73.496;2023-03-16T02:54:32;9.52;;;7.80;;
59907;SDS011;61804;54.926;73.496;2023-03-16T02:57:01;7.45;;;6.78;;
59907;SDS011;61804;54.926;73.496;2023-03-16T02:59:30;8.68;;;6.43;;
59907;SDS011;61804;54.926;73.496;2023-03-16T03:01:58;7.72;;;6.28;;
59907;SDS011;61804;54.926;73.496;2023-03-16T03:04:34;7.93;;;6.00;;
59907;SDS011;61804;54.926;73.496;2023-03-16T03:07:02;5.93;;;5.10;;
59907;SDS011;61804;54.926;73.496;2023-03-16T03:09:34;5.18;;;4.70;;
59907;SDS011;61804;54.926;73.496;2023-03-16T03:12:03;5.60;;;4.55;;
59907;SDS011;61804;54.926;73.496;2023-03-16T03:14:31;4.63;;;4.05;;
59907;SDS011;61804;54.926;73.496;2023-03-16T03:17:06;4.93;;;4.53;;
59907;SDS011;61804;54.926;73.496;2023-03-16T03:19:45;7.03;;;5.70;;
59907;SDS011;61804;54.926;73.496;2023-03-16T03:22:12;4.13;;;3.22;;
59907;SDS011;61804;54.926;73.496;2023-03-16T03:24:55;5.80;;;5.40;;
59907;SDS011;61804;54.926;73.496;2023-03-16T03:27:23;5.95;;;3.65;;
59907;SDS011;61804;54.926;73.496;2023-03-16T03:29:53;4.38;;;3.25;;
59907;SDS011;61804;54.926;73.496;2023-03-16T03:32:25;5.22;;;3.88;;
59907;SDS011;61804;54.926;73.496;2023-03-16T03:35:04;3.53;;;3.22;;
59907;SDS011;61804;54.926;73.496;2023-03-16T03:37:41;3.38;;;3.08;;
59907;SDS011;61804;54.926;73.496;2023-03-16T03:40:12;3.92;;;3.33;;
59907;SDS011;61804;54.926;73.496;2023-03-16T03:42:40;26.10;;;17.65;;
59907;SDS011;61804;54.926;73.496;2023-03-16T03:45:10;8.93;;;6.63;;
59907;SDS011;61804;54.926;73.496;2023-03-16T03:47:40;7.40;;;6.00;;
59907;SDS011;61804;54.926;73.496;2023-03-16T03:50:11;6.45;;;5.85;;
59907;SDS011;61804;54.926;73.496;2023-03-16T03:52:53;4.70;;;4.18;;
59907;SDS011;61804;54.926;73.496;2023-03-16T03:55:25;6.68;;;4.97;;
59907;SDS011;61804;54.926;73.496;2023-03-16T03:57:53;17.27;;;6.00;;
59907;SDS011;61804;54.926;73.496;2023-03-16T04:00:29;6.65;;;4.38;;
59907;SDS011;61804;54.926;73.496;2023-03-16T04:02:57;4.32;;;3.75;;
59907;SDS011;61804;54.926;73.496;2023-03-16T04:05:32;6.88;;;3.97;;
59907;SDS011;61804;54.926;73.496;2023-03-16T04:08:00;4.47;;;4.07;;
59907;SDS011;61804;54.926;73.496;2023-03-16T04:10:28;6.10;;;4.03;;
59907;SDS011;61804;54.926;73.496;2023-03-16T04:12:57;20.80;;;3.80;;
59907;SDS011;61804;54.926;73.496;2023-03-16T04:15:26;6.32;;;3.28;;
59907;SDS011;61804;54.926;73.496;2023-03-16T04:18:10;4.47;;;3.95;;
59907;SDS011;61804;54.926;73.496;2023-03-16T04:20:40;3.90;;;3.60;;
59907;SDS011;61804;54.926;73.496;2023-03-16T04:23:08;5.45;;;4.70;;
59907;SDS011;61804;54.926;73.496;2023-03-16T04:25:39;4.80;;;3.22;;
59907;SDS011;61804;54.926;73.496;2023-03-16T04:28:08;6.97;;;2.90;;
59907;SDS011;61804;54.926;73.496;2023-03-16T04:30:39;4.05;;;3.65;;
59907;SDS011;61804;54.926;73.496;2023-03-16T04:33:17;4.97;;;4.15;;
59907;SDS011;61804;54.926;73.496;2023-03-16T04:35:46;6.43;;;4.82;;
59907;SDS011;61804;54.926;73.496;2023-03-16T04:38:26;5.95;;;5.35;;
59907;SDS011;61804;54.926;73.496;2023-03-16T04:41:02;9.95;;;5.97;;
59907;SDS011;61804;54.926;73.496;2023-03-16T04:43:35;5.22;;;4.63;;
59907;SDS011;61804;54.926;73.496;2023-03-16T04:46:14;3.58;;;3.15;;
59907;SDS011;61804;54.926;73.496;2023-03-16T04:48:42;4.93;;;2.97;;
59907;SDS011;61804;54.926;73.496;2023-03-16T04:51:10;5.15;;;4.65;;
59907;SDS011;61804;54.926;73.496;2023-03-16T04:53:43;4.05;;;3.15;;
59907;SDS011;61804;54.926;73.496;2023-03-16T04:56:19;6.68;;;3.80;;
59907;SDS011;61804;54.926;73.496;2023-03-16T04:59:04;4.13;;;2.70;;
59907;SDS011;61804;54.926;73.496;2023-03-16T05:01:45;3.47;;;3.10;;
59907;SDS011;61804;54.926;73.496;2023-03-16T05:04:17;3.35;;;2.83;;
59907;SDS011;61804;54.926;73.496;2023-03-16T05:06:45;2.28;;;1.98;;
59907;SDS011;61804;54.926;73.496;2023-03-16T05:09:15;2.67;;;2.47;;
59907;SDS011;61804;54.926;73.496;2023-03-16T05:11:50;2.30;;;2.00;;
59907;SDS011;61804;54.926;73.496;2023-03-16T05:14:30;2.88;;;2.45;;
59907;SDS011;61804;54.926;73.496;2023-03-16T05:17:16;1.92;;;1.70;;
59907;SDS011;61804;54.926;73.496;2023-03-16T05:19:46;2.45;;;2.00;;
59907;SDS011;61804;54.926;73.496;2023-03-16T05:22:24;3.67;;;2.30;;
59907;SDS011;61804;54.926;73.496;2023-03-16T05:25:27;2.17;;;1.73;;
59907;SDS011;61804;54.926;73.496;2023-03-16T05:27:57;8.07;;;2.25;;
59907;SDS011;61804;54.926;73.496;2023-03-16T05:30:32;2.35;;;1.98;;
59907;SDS011;61804;54.926;73.496;2023-03-16T05:33:05;2.92;;;2.22;;
59907;SDS011;61804;54.926;73.496;2023-03-16T05:35:34;3.58;;;1.92;;
59907;SDS011;61804;54.926;73.496;2023-03-16T05:38:05;3.67;;;2.63;;
59907;SDS011;61804;54.926;73.496;2023-03-16T05:40:37;26.77;;;16.80;;
59907;SDS011;61804;54.926;73.496;2023-03-16T05:43:21;3.05;;;2.75;;
59907;SDS011;61804;54.926;73.496;2023-03-16T05:45:51;4.03;;;3.03;;
59907;SDS011;61804;54.926;73.496;2023-03-16T05:48:19;2.40;;;2.20;;
59907;SDS011;61804;54.926;73.496;2023-03-16T05:50:52;2.75;;;2.53;;
59907;SDS011;61804;54.926;73.496;2023-03-16T05:53:32;2.13;;;1.90;;
59907;SDS011;61804;54.926;73.496;2023-03-16T05:56:07;7.57;;;3.67;;
59907;SDS011;61804;54.926;73.496;2023-03-16T05:58:50;2.63;;;2.42;;
59907;SDS011;61804;54.926;73.496;2023-03-16T06:01:27;2.67;;;2.47;;
59907;SDS011;61804;54.926;73.496;2023-03-16T06:03:56;2.00;;;1.83;;
59907;SDS011;61804;54.926;73.496;2023-03-16T06:06:26;4.82;;;3.38;;
59907;SDS011;61804;54.926;73.496;2023-03-16T06:09:05;6.45;;;4.25;;
59907;SDS011;61804;54.926;73.496;2023-03-16T06:11:33;2.63;;;2.42;;
59907;SDS011;61804;54.926;73.496;2023-03-16T06:14:06;6.70;;;5.00;;
59907;SDS011;61804;54.926;73.496;2023-03-16T06:16:38;1.55;;;1.33;;
59907;SDS011;61804;54.926;73.496;2023-03-16T06:19:07;7.93;;;3.42;;
59907;SDS011;61804;54.926;73.496;2023-03-16T06:21:36;2.35;;;1.48;;
59907;SDS011;61804;54.926;73.496;2023-03-16T06:24:18;3.42;;;3.13;;
59907;SDS011;61804;54.926;73.496;2023-03-16T06:26:46;4.03;;;2.95;;
59907;SDS011;61804;54.926;73.496;2023-03-16T06:29:14;11.48;;;6.90;;
59907;SDS011;61804;54.926;73.496;2023-03-16T06:31:42;7.72;;;3.83;;
59907;SDS011;61804;54.926;73.496;2023-03-16T06:34:10;6.05;;;3.28;;
59907;SDS011;61804;54.926;73.496;2023-03-16T06:36:39;3.25;;;2.08;;
59907;SDS011;61804;54.926;73.496;2023-03-16T06:39:17;4.15;;;3.00;;
59907;SDS011;61804;54.926;73.496;2023-03-16T06:41:47;10.55;;;6.60;;
59907;SDS011;61804;54.926;73.496;2023-03-16T06:44:18;7.00;;;5.20;;
59907;SDS011;61804;54.926;73.496;2023-03-16T06:46:58;2.67;;;1.70;;
59907;SDS011;61804;54.926;73.496;2023-03-16T06:49:26;1.60;;;1.38;;
59907;SDS011;61804;54.926;73.496;2023-03-16T06:51:55;5.38;;;3.53;;
59907;SDS011;61804;54.926;73.496;2023-03-16T06:54:25;2.30;;;2.10;;
59907;SDS011;61804;54.926;73.496;2023-03-16T06:56:52;2.38;;;1.77;;
59907;SDS011;61804;54.926;73.496;2023-03-16T06:59:21;1.92;;;1.83;;
59907;SDS011;61804;54.926;73.496;2023-03-16T07:01:48;1.73;;;1.63;;
59907;SDS011;61804;54.926;73.496;2023-03-16T07:04:16;3.20;;;1.67;;
59907;SDS011;61804;54.926;73.496;2023-03-16T07:06:44;1.65;;;1.55;;
59907;SDS011;61804;54.926;73.496;2023-03-16T07:09:12;7.78;;;5.18;;
59907;SDS011;61804;54.926;73.496;2023-03-16T07:11:46;5.18;;;3.25;;
59907;SDS011;61804;54.926;73.496;2023-03-16T07:14:14;2.97;;;2.30;;
59907;SDS011;61804;54.926;73.496;2023-03-16T07:16:42;2.88;;;2.58;;
59907;SDS011;61804;54.926;73.496;2023-03-16T07:19:09;2.63;;;1.83;;
59907;SDS011;61804;54.926;73.496;2023-03-16T07:21:37;3.25;;;2.05;;
59907;SDS011;61804;54.926;73.496;2023-03-16T07:24:10;2.50;;;1.63;;
59907;SDS011;61804;54.926;73.496;2023-03-16T07:26:50;2.40;;;2.20;;
59907;SDS011;61804;54.926;73.496;2023-03-16T07:29:30;1.95;;;1.63;;
59907;SDS011;61804;54.926;73.496;2023-03-16T07:31:57;2.97;;;1.45;;
59907;SDS011;61804;54.926;73.496;2023-03-16T07:34:33;2.17;;;1.38;;
59907;SDS011;61804;54.926;73.496;2023-03-16T07:37:02;4.25;;;2.25;;
59907;SDS011;61804;54.926;73.496;2023-03-16T07:39:32;1.67;;;1.58;;
59907;SDS011;61804;54.926;73.496;2023-03-16T07:42:08;1.25;;;1.10;;
59907;SDS011;61804;54.926;73.496;2023-03-16T07:44:48;2.13;;;1.98;;
59907;SDS011;61804;54.926;73.496;2023-03-16T07:47:16;3.67;;;1.98;;
59907;SDS011;61804;54.926;73.496;2023-03-16T07:49:45;2.10;;;1.55;;
59907;SDS011;61804;54.926;73.496;2023-03-16T07:52:12;3.67;;;1.52;;
59907;SDS011;61804;54.926;73.496;2023-03-16T07:54:41;1.20;;;1.10;;
59907;SDS011;61804;54.926;73.496;2023-03-16T07:57:17;2.22;;;2.03;;
59907;SDS011;61804;54.926;73.496;2023-03-16T07:59:49;2.33;;;2.08;;
59907;SDS011;61804;54.926;73.496;2023-03-16T08:02:18;5.28;;;2.55;;
59907;SDS011;61804;54.926;73.496;2023-03-16T08:04:48;4.90;;;4.15;;
59907;SDS011;61804;54.926;73.496;2023-03-16T08:07:17;3.28;;;1.85;;
59907;SDS011;61804;54.926;73.496;2023-03-16T08:10:01;1.52;;;1.35;;
59907;SDS011;61804;54.926;73.496;2023-03-16T08:12:40;2.17;;;1.83;;
59907;SDS011;61804;54.926;73.496;2023-03-16T08:15:09;2.20;;;2.10;;
59907;SDS011;61804;54.926;73.496;2023-03-16T08:17:38;2.90;;;1.95;;
59907;SDS011;61804;54.926;73.496;2023-03-16T08:20:13;2.03;;;1.80;;
59907;SDS011;61804;54.926;73.496;2023-03-16T08:22:42;2.40;;;1.52;;
59907;SDS011;61804;54.926;73.496;2023-03-16T08:25:13;3.08;;;1.85;;
59907;SDS011;61804;54.926;73.496;2023-03-16T08:27:51;3.90;;;2.05;;
59907;SDS011;61804;54.926;73.496;2023-03-16T08:30:23;7.53;;;6.03;;
59907;SDS011;61804;54.926;73.496;2023-03-16T08:33:08;2.17;;;1.85;;
59907;SDS011;61804;54.926;73.496;2023-03-16T08:35:40;2.30;;;1.73;;
59907;SDS011;61804;54.926;73.496;2023-03-16T08:38:10;2.80;;;2.33;;
59907;SDS011;61804;54.926;73.496;2023-03-16T08:40:38;2.08;;;1.85;;
59907;SDS011;61804;54.926;73.496;2023-03-16T08:43:09;2.55;;;2.35;;
59907;SDS011;61804;54.926;73.496;2023-03-16T08:45:38;3.38;;;2.42;;
59907;SDS011;61804;54.926;73.496;2023-03-16T08:48:06;3.85;;;2.90;;
59907;SDS011;61804;54.926;73.496;2023-03-16T08:50:34;3.60;;;1.60;;
59907;SDS011;61804;54.926;73.496;2023-03-16T08:53:03;3.88;;;3.53;;
59907;SDS011;61804;54.926;73.496;2023-03-16T08:55:32;15.35;;;7.72;;
59907;SDS011;61804;54.926;73.496;2023-03-16T08:58:00;16.42;;;8.95;;
59907;SDS011;61804;54.926;73.496;2023-03-16T09:00:27;8.32;;;3.45;;
59907;SDS011;61804;54.926;73.496;2023-03-16T09:02:55;26.50;;;16.25;;
59907;SDS011;61804;54.926;73.496;2023-03-16T09:05:22;3.50;;;2.60;;
59907;SDS011;61804;54.926;73.496;2023-03-16T09:07:51;4.63;;;4.22;;
59907;SDS011;61804;54.926;73.496;2023-03-16T09:10:20;4.60;;;3.92;;
59907;SDS011;61804;54.926;73.496;2023-03-16T09:12:49;3.78;;;2.63;;
59907;SDS011;61804;54.926;73.496;2023-03-16T09:15:19;6.28;;;3.22;;
59907;SDS011;61804;54.926;73.496;2023-03-16T09:17:47;2.50;;;2.30;;
59907;SDS011;61804;54.926;73.496;2023-03-16T09:20:15;5.13;;;3.50;;
59907;SDS011;61804;54.926;73.496;2023-03-16T09:22:44;3.20;;;2.92;;
59907;SDS011;61804;54.926;73.496;2023-03-16T09:25:11;1.75;;;1.65;;
59907;SDS011;61804;54.926;73.496;2023-03-16T09:27:38;5.90;;;2.00;;
59907;SDS011;61804;54.926;73.496;2023-03-16T09:30:06;5.70;;;2.10;;
59907;SDS011;61804;54.926;73.496;2023-03-16T09:32:34;2.00;;;1.90;;
59907;SDS011;61804;54.926;73.496;2023-03-16T09:35:03;2.20;;;1.73;;
59907;SDS011;61804;54.926;73.496;2023-03-16T09:40:05;1.52;;;1.42;;
59907;SDS011;61804;54.926;73.496;2023-03-16T09:47:59;2.45;;;1.98;;
59907;SDS011;61804;54.926;73.496;2023-03-16T09:50:30;2.63;;;2.22;;
59907;SDS011;61804;54.926;73.496;2023-03-16T09:53:15;1.70;;;1.52;;
59907;SDS011;61804;54.926;73.496;2023-03-16T09:55:45;1.63;;;1.52;;
59907;SDS011;61804;54.926;73.496;2023-03-16T09:58:16;2.15;;;1.55;;
59907;SDS011;61804;54.926;73.496;2023-03-16T10:03:35;3.75;;;2.85;;
59907;SDS011;61804;54.926;73.496;2023-03-16T10:06:08;2.80;;;2.25;;
59907;SDS011;61804;54.926;73.496;2023-03-16T10:08:42;6.43;;;3.42;;
59907;SDS011;61804;54.926;73.496;2023-03-16T10:16:12;2.38;;;1.52;;
59907;SDS011;61804;54.926;73.496;2023-03-16T10:18:52;1.48;;;1.38;;
59907;SDS011;61804;54.926;73.496;2023-03-16T10:21:22;9.20;;;6.75;;
59907;SDS011;61804;54.926;73.496;2023-03-16T10:23:49;1.63;;;1.52;;
59907;SDS011;61804;54.926;73.496;2023-03-16T10:26:25;2.22;;;1.63;;
59907;SDS011;61804;54.926;73.496;2023-03-16T10:29:09;3.38;;;3.13;;
59907;SDS011;61804;54.926;73.496;2023-03-16T10:31:41;4.75;;;3.83;;
59907;SDS011;61804;54.926;73.496;2023-03-16T10:34:08;2.83;;;2.25;;
59907;SDS011;61804;54.926;73.496;2023-03-16T10:36:40;1.60;;;1.50;;
59907;SDS011;61804;54.926;73.496;2023-03-16T10:39:15;2.45;;;1.90;;
59907;SDS011;61804;54.926;73.496;2023-03-16T10:41:47;3.13;;;2.35;;
59907;SDS011;61804;54.926;73.496;2023-03-16T10:44:21;2.27;;;2.13;;
59907;SDS011;61804;54.926;73.496;2023-03-16T10:46:50;2.88;;;2.60;;
59907;SDS011;61804;54.926;73.496;2023-03-16T10:49:38;3.17;;;2.17;;
59907;SDS011;61804;54.926;73.496;2023-03-16T10:52:16;2.45;;;2.25;;
59907;SDS011;61804;54.926;73.496;2023-03-16T10:54:56;2.70;;;2.50;;
59907;SDS011;61804;54.926;73.496;2023-03-16T10:57:39;5.55;;;4.97;;
59907;SDS011;61804;54.926;73.496;2023-03-16T11:00:11;3.70;;;3.40;;
59907;SDS011;61804;54.926;73.496;2023-03-16T11:02:57;3.70;;;3.40;;
59907;SDS011;61804;54.926;73.496;2023-03-16T11:08:07;44.72;;;31.85;;
59907;SDS011;61804;54.926;73.496;2023-03-16T11:10:46;3.50;;;3.20;;
59907;SDS011;61804;54.926;73.496;2023-03-16T11:13:16;3.88;;;3.22;;
59907;SDS011;61804;54.926;73.496;2023-03-16T11:18:42;3.92;;;3.05;;
59907;SDS011;61804;54.926;73.496;2023-03-16T11:21:37;3.92;;;3.45;;
59907;SDS011;61804;54.926;73.496;2023-03-16T11:26:53;2.75;;;2.55;;
59907;SDS011;61804;54.926;73.496;2023-03-16T11:32:05;6.75;;;6.18;;
59907;SDS011;61804;54.926;73.496;2023-03-16T11:34:37;9.57;;;8.68;;
59907;SDS011;61804;54.926;73.496;2023-03-16T11:48:00;7.40;;;3.35;;
59907;SDS011;61804;54.926;73.496;2023-03-16T11:53:16;10.30;;;7.50;;
59907;SDS011;61804;54.926;73.496;2023-03-16T12:03:40;3.88;;;3.58;;
59907;SDS011;61804;54.926;73.496;2023-03-16T12:11:27;12.23;;;9.32;;
59907;SDS011;61804;54.926;73.496;2023-03-16T12:19:44;5.65;;;4.68;;
59907;SDS011;61804;54.926;73.496;2023-03-16T12:22:15;7.05;;;6.28;;
59907;SDS011;61804;54.926;73.496;2023-03-16T12:24:49;12.48;;;10.43;;
59907;SDS011;61804;54.926;73.496;2023-03-16T12:27:20;5.13;;;4.40;;
59907;SDS011;61804;54.926;73.496;2023-03-16T12:30:02;4.75;;;4.35;;
59907;SDS011;61804;54.926;73.496;2023-03-16T12:37:47;15.02;;;11.85;;
59907;SDS011;61804;54.926;73.496;2023-03-16T12:46:21;27.08;;;16.48;;
59907;SDS011;61804;54.926;73.496;2023-03-16T12:48:26;9.85;;;6.65;;
59907;SDS011;61804;54.926;73.496;2023-03-16T12:51:02;3.60;;;3.25;;
59907;SDS011;61804;54.926;73.496;2023-03-16T12:53:40;9.27;;;6.30;;
59907;SDS011;61804;54.926;73.496;2023-03-16T12:56:12;37.22;;;26.63;;
59907;SDS011;61804;54.926;73.496;2023-03-16T12:58:43;31.55;;;23.83;;
59907;SDS011;61804;54.926;73.496;2023-03-16T13:01:25;13.80;;;7.43;;
59907;SDS011;61804;54.926;73.496;2023-03-16T13:03:59;29.85;;;26.30;;
59907;SDS011;61804;54.926;73.496;2023-03-16T13:06:32;34.00;;;24.25;;
59907;SDS011;61804;54.926;73.496;2023-03-16T13:09:02;14.85;;;13.18;;
59907;SDS011;61804;54.926;73.496;2023-03-16T13:11:40;22.50;;;15.43;;
59907;SDS011;61804;54.926;73.496;2023-03-16T13:14:33;16.23;;;12.07;;
59907;SDS011;61804;54.926;73.496;2023-03-16T13:20:03;11.00;;;7.82;;
59907;SDS011;61804;54.926;73.496;2023-03-16T13:25:13;16.42;;;11.00;;
59907;SDS011;61804;54.926;73.496;2023-03-16T13:27:49;13.00;;;9.75;;
59907;SDS011;61804;54.926;73.496;2023-03-16T13:30:20;14.35;;;8.00;;
59907;SDS011;61804;54.926;73.496;2023-03-16T13:32:51;7.75;;;6.93;;
59907;SDS011;61804;54.926;73.496;2023-03-16T13:35:19;10.82;;;8.70;;
59907;SDS011;61804;54.926;73.496;2023-03-16T13:37:48;6.47;;;5.35;;
59907;SDS011;61804;54.926;73.496;2023-03-16T13:40:24;6.60;;;6.00;;
59907;SDS011;61804;54.926;73.496;2023-03-16T13:43:00;10.80;;;8.73;;
59907;SDS011;61804;54.926;73.496;2023-03-16T13:45:30;14.00;;;12.55;;
59907;SDS011;61804;54.926;73.496;2023-03-16T13:47:59;11.35;;;8.88;;
59907;SDS011;61804;54.926;73.496;2023-03-16T13:50:31;17.45;;;15.25;;
59907;SDS011;61804;54.926;73.496;2023-03-16T13:53:01;7.60;;;5.82;;
59907;SDS011;61804;54.926;73.496;2023-03-16T13:55:33;5.30;;;2.88;;
59907;SDS011;61804;54.926;73.496;2023-03-16T13:58:18;2.45;;;2.25;;
59907;SDS011;61804;54.926;73.496;2023-03-16T14:00:47;11.00;;;9.85;;
59907;SDS011;61804;54.926;73.496;2023-03-16T14:03:16;12.20;;;11.00;;
59907;SDS011;61804;54.926;73.496;2023-03-16T14:05:45;10.45;;;8.63;;
59907;SDS011;61804;54.926;73.496;2023-03-16T14:08:17;9.05;;;7.35;;
59907;SDS011;61804;54.926;73.496;2023-03-16T14:10:49;10.32;;;5.68;;
59907;SDS011;61804;54.926;73.496;2023-03-16T14:18:21;12.02;;;8.18;;
59907;SDS011;61804;54.926;73.496;2023-03-16T14:20:50;20.42;;;15.30;;
59907;SDS011;61804;54.926;73.496;2023-03-16T14:23:33;6.88;;;6.05;;
59907;SDS011;61804;54.926;73.496;2023-03-16T14:26:13;6.10;;;5.50;;
59907;SDS011;61804;54.926;73.496;2023-03-16T14:28:52;8.02;;;6.97;;
59907;SDS011;61804;54.926;73.496;2023-03-16T14:31:20;7.70;;;6.78;;
59907;SDS011;61804;54.926;73.496;2023-03-16T14:33:47;5.72;;;4.60;;
59907;SDS011;61804;54.926;73.496;2023-03-16T14:36:32;5.47;;;4.55;;
59907;SDS011;61804;54.926;73.496;2023-03-16T14:39:11;6.45;;;5.30;;
59907;SDS011;61804;54.926;73.496;2023-03-16T14:41:48;5.25;;;4.85;;
59907;SDS011;61804;54.926;73.496;2023-03-16T14:44:23;8.50;;;6.85;;
59907;SDS011;61804;54.926;73.496;2023-03-16T14:46:53;13.63;;;7.07;;
59907;SDS011;61804;54.926;73.496;2023-03-16T14:51:51;10.13;;;7.38;;
59907;SDS011;61804;54.926;73.496;2023-03-16T14:54:20;37.42;;;34.13;;
59907;SDS011;61804;54.926;73.496;2023-03-16T14:56:52;43.65;;;25.80;;
59907;SDS011;61804;54.926;73.496;2023-03-16T14:59:30;76.40;;;46.03;;
59907;SDS011;61804;54.926;73.496;2023-03-16T15:02:27;125.13;;;89.30;;
59907;SDS011;61804;54.926;73.496;2023-03-16T15:04:55;56.58;;;40.42;;
59907;SDS011;61804;54.926;73.496;2023-03-16T15:07:34;32.78;;;20.90;;
59907;SDS011;61804;54.926;73.496;2023-03-16T15:10:05;15.65;;;13.07;;
59907;SDS011;61804;54.926;73.496;2023-03-16T15:12:33;53.22;;;40.88;;
59907;SDS011;61804;54.926;73.496;2023-03-16T15:15:01;28.38;;;21.73;;
59907;SDS011;61804;54.926;73.496;2023-03-16T15:18:01;17.35;;;13.23;;
59907;SDS011;61804;54.926;73.496;2023-03-16T15:20:40;10.48;;;9.48;;
59907;SDS011;61804;54.926;73.496;2023-03-16T15:23:12;10.43;;;9.40;;
59907;SDS011;61804;54.926;73.496;2023-03-16T15:25:44;18.95;;;16.73;;
59907;SDS011;61804;54.926;73.496;2023-03-16T15:30:45;47.55;;;42.25;;
59907;SDS011;61804;54.926;73.496;2023-03-16T15:33:13;33.67;;;30.08;;
59907;SDS011;61804;54.926;73.496;2023-03-16T15:35:40;10.43;;;8.23;;
59907;SDS011;61804;54.926;73.496;2023-03-16T15:38:15;11.63;;;10.32;;
59907;SDS011;61804;54.926;73.496;2023-03-16T15:40:57;29.25;;;25.48;;
59907;SDS011;61804;54.926;73.496;2023-03-16T15:43:28;23.05;;;14.95;;
59907;SDS011;61804;54.926;73.496;2023-03-16T15:46:01;87.60;;;54.80;;
59907;SDS011;61804;54.926;73.496;2023-03-16T15:48:29;21.77;;;14.95;;
59907;SDS011;61804;54.926;73.496;2023-03-16T15:51:10;70.43;;;41.20;;
59907;SDS011;61804;54.926;73.496;2023-03-16T15:53:52;81.30;;;45.22;;
59907;SDS011;61804;54.926;73.496;2023-03-16T15:56:22;30.88;;;23.75;;
59907;SDS011;61804;54.926;73.496;2023-03-16T15:58:58;9.48;;;7.93;;
59907;SDS011;61804;54.926;73.496;2023-03-16T16:01:29;11.52;;;8.45;;
59907;SDS011;61804;54.926;73.496;2023-03-16T16:03:58;22.88;;;16.77;;
59907;SDS011;61804;54.926;73.496;2023-03-16T16:06:27;16.83;;;12.55;;
59907;SDS011;61804;54.926;73.496;2023-03-16T16:08:55;41.33;;;33.67;;
59907;SDS011;61804;54.926;73.496;2023-03-16T16:11:24;12.40;;;8.85;;
59907;SDS011;61804;54.926;73.496;2023-03-16T16:13:53;11.10;;;9.30;;
59907;SDS011;61804;54.926;73.496;2023-03-16T16:16:22;7.78;;;6.18;;
59907;SDS011;61804;54.926;73.496;2023-03-16T16:19:02;11.55;;;9.00;;
59907;SDS011;61804;54.926;73.496;2023-03-16T16:21:29;34.10;;;27.63;;
59907;SDS011;61804;54.926;73.496;2023-03-16T16:23:58;12.77;;;11.68;;
59907;SDS011;61804;54.926;73.496;2023-03-16T16:26:31;25.48;;;19.20;;
59907;SDS011;61804;54.926;73.496;2023-03-16T16:29:00;24.50;;;19.88;;
59907;SDS011;61804;54.926;73.496;2023-03-16T16:31:34;35.13;;;25.48;;
59907;SDS011;61804;54.926;73.496;2023-03-16T16:34:02;27.02;;;18.70;;
59907;SDS011;61804;54.926;73.496;2023-03-16T16:36:31;9.20;;;7.93;;
59907;SDS011;61804;54.926;73.496;2023-03-16T16:38:58;17.98;;;13.10;;
59907;SDS011;61804;54.926;73.496;2023-03-16T16:41:27;14.68;;;11.45;;
59907;SDS011;61804;54.926;73.496;2023-03-16T16:44:00;50.17;;;31.65;;
59907;SDS011;61804;54.926;73.496;2023-03-16T16:46:37;38.60;;;25.92;;